createdAt,value
2019-02-11T00:01:54.498Z,189.45
2019-02-11T00:04:25.958Z,309.50
2019-02-11T00:06:57.436Z,242.43
2019-02-11T00:09:29.248Z,165.55
2019-02-11T00:12:00.866Z,129.20
2019-02-11T00:14:32.161Z,120.45
2019-02-11T00:17:03.638Z,158.63
2019-02-11T00:19:35.907Z,136.68
2019-02-11T00:22:07.747Z,136.92
2019-02-11T00:24:39.441Z,147.72
2019-02-11T00:27:11.041Z,126.78
2019-02-11T00:29:42.795Z,127.25
2019-02-11T00:32:15.178Z,113.80
2019-02-11T00:34:46.865Z,136.20
2019-02-11T00:37:18.566Z,127.62
2019-02-11T00:39:49.828Z,130.00
2019-02-11T00:42:21.176Z,131.72
2019-02-11T00:44:52.672Z,137.07
2019-02-11T00:47:24.231Z,129.32
2019-02-11T00:49:55.802Z,127.10
2019-02-11T00:52:27.355Z,207.87
2019-02-11T00:54:59.185Z,150.80
2019-02-11T00:57:30.643Z,165.82
2019-02-11T01:00:02.149Z,173.62
2019-02-11T01:02:33.439Z,158.22
2019-02-11T01:05:05.141Z,151.50
2019-02-11T01:07:36.703Z,146.98
2019-02-11T01:10:10.005Z,144.93
2019-02-11T01:12:41.355Z,134.47
2019-02-11T01:15:13.926Z,127.27
2019-02-11T01:17:45.595Z,136.22
2019-02-11T01:20:17.180Z,128.82
2019-02-11T01:22:48.666Z,125.80
2019-02-11T01:25:20.263Z,125.70
2019-02-11T01:27:51.638Z,174.05
2019-02-11T01:30:23.269Z,146.68
2019-02-11T01:32:54.754Z,145.38
2019-02-11T01:35:26.248Z,118.60
2019-02-11T01:37:57.723Z,118.15
2019-02-11T01:40:29.376Z,136.90
2019-02-11T01:43:00.654Z,131.50
2019-02-11T01:45:32.131Z,136.97
2019-02-11T01:48:03.511Z,117.77
2019-02-11T01:50:35.103Z,128.97
2019-02-11T01:53:06.689Z,130.43
2019-02-11T01:55:38.100Z,126.80
2019-02-11T01:58:09.633Z,129.82
2019-02-11T02:00:41.248Z,117.10
2019-02-11T02:03:12.692Z,112.03
2019-02-11T02:05:44.248Z,95.00
2019-02-11T02:08:15.952Z,102.67
2019-02-11T02:10:47.626Z,103.80
2019-02-11T02:13:19.205Z,104.17
2019-02-11T02:15:50.819Z,86.70
2019-02-11T02:18:22.166Z,96.37
2019-02-11T02:20:53.532Z,101.95
2019-02-11T02:23:24.967Z,97.17
2019-02-11T02:25:56.523Z,91.53
2019-02-11T02:28:28.474Z,88.80
2019-02-11T02:30:59.908Z,85.47
2019-02-11T02:33:32.171Z,86.25
2019-02-11T02:36:03.842Z,85.22
2019-02-11T02:38:35.196Z,86.95
2019-02-11T02:41:06.754Z,85.90
2019-02-11T02:43:38.963Z,83.72
2019-02-11T02:46:10.642Z,90.42
2019-02-11T02:48:42.028Z,80.42
2019-02-11T02:51:13.429Z,85.60
2019-02-11T02:53:44.997Z,85.38
2019-02-11T02:56:16.595Z,80.42
2019-02-11T02:58:48.214Z,81.32
2019-02-11T03:01:19.733Z,86.05
2019-02-11T03:03:51.242Z,83.25
2019-02-11T03:06:22.957Z,82.78
2019-02-11T03:08:54.541Z,84.15
2019-02-11T03:11:26.290Z,78.72
2019-02-11T03:14:05.449Z,75.45
2019-02-11T03:16:30.699Z,96.42
2019-02-11T03:19:02.273Z,75.85
2019-02-11T03:21:33.915Z,79.85
2019-02-11T03:24:06.416Z,84.35
2019-02-11T03:26:37.750Z,81.05
2019-02-11T03:29:09.209Z,75.12
2019-02-11T03:31:40.647Z,76.95
2019-02-11T03:34:12.144Z,79.22
2019-02-11T03:36:43.775Z,75.92
2019-02-11T03:39:15.219Z,71.35
2019-02-11T03:41:46.657Z,78.47
2019-02-11T03:44:18.373Z,82.65
2019-02-11T03:46:50.063Z,84.37
2019-02-11T03:49:21.712Z,84.47
2019-02-11T03:51:53.300Z,75.45
2019-02-11T03:54:24.833Z,71.67
2019-02-11T03:56:56.495Z,76.77
2019-02-11T03:59:29.609Z,73.50
2019-02-11T04:02:01.292Z,71.95
2019-02-11T04:04:32.750Z,75.25
2019-02-11T04:07:04.354Z,73.00
2019-02-11T04:09:35.878Z,81.63
2019-02-11T04:12:07.525Z,82.67
2019-02-11T04:14:38.850Z,79.27
2019-02-11T04:17:10.064Z,89.25
2019-02-11T04:19:41.986Z,90.83
2019-02-11T04:22:13.650Z,79.62
2019-02-11T04:24:45.176Z,81.97
2019-02-11T04:27:16.890Z,79.25
2019-02-11T04:29:48.418Z,76.47
2019-02-11T04:32:19.695Z,76.12
2019-02-11T04:34:51.172Z,72.40
2019-02-11T04:37:22.821Z,60.60
2019-02-11T04:39:54.294Z,69.67
2019-02-11T04:42:25.978Z,66.50
2019-02-11T04:44:57.927Z,66.85
2019-02-11T04:47:29.622Z,64.00
2019-02-11T04:50:01.333Z,62.95
2019-02-11T04:52:44.655Z,75.80
2019-02-11T04:55:16.179Z,65.50
2019-02-11T04:57:47.887Z,94.35
2019-02-11T05:00:19.580Z,88.60
2019-02-11T05:02:51.308Z,151.42
2019-02-11T05:05:22.978Z,117.67
2019-02-11T05:07:55.037Z,125.30
2019-02-11T05:10:26.478Z,81.20
2019-02-11T05:12:58.409Z,74.55
2019-02-11T05:15:29.924Z,77.17
2019-02-11T05:18:01.331Z,55.70
2019-02-11T05:20:32.873Z,64.58
2019-02-11T05:23:04.344Z,65.08
2019-02-11T05:25:35.925Z,66.92
2019-02-11T05:28:08.032Z,52.62
2019-02-11T05:30:39.494Z,55.40
2019-02-11T05:33:11.135Z,62.98
2019-02-11T05:35:42.696Z,60.67
2019-02-11T05:38:14.180Z,102.05
2019-02-11T05:40:45.699Z,100.78
2019-02-11T05:43:17.095Z,85.07
2019-02-11T05:45:48.836Z,79.65
2019-02-11T05:51:44.249Z,41.85
2019-02-11T05:54:15.638Z,39.33
2019-02-11T05:56:47.932Z,50.00
2019-02-11T05:59:19.291Z,38.75
2019-02-11T06:01:50.881Z,35.65
2019-02-11T06:04:22.560Z,34.88
2019-02-11T06:06:54.574Z,57.17
2019-02-11T06:09:26.157Z,38.50
2019-02-11T06:11:57.890Z,30.12
2019-02-11T06:14:29.308Z,42.13
2019-02-11T06:17:00.882Z,32.97
2019-02-11T06:19:32.595Z,34.43
2019-02-11T06:22:04.129Z,33.27
2019-02-11T06:24:35.597Z,43.00
2019-02-11T06:27:07.483Z,44.13
2019-02-11T06:29:39.236Z,30.00
2019-02-11T06:32:10.962Z,34.00
2019-02-11T06:34:42.584Z,35.33
2019-02-11T06:37:14.405Z,45.77
2019-02-11T06:39:46.397Z,42.17
2019-02-11T06:42:18.300Z,38.60
2019-02-11T06:44:50.527Z,39.37
2019-02-11T06:47:22.627Z,34.60
2019-02-11T06:49:54.045Z,30.23
2019-02-11T06:52:25.538Z,27.80
2019-02-11T06:54:57.271Z,29.20
2019-02-11T06:57:29.791Z,32.50
2019-02-11T07:00:01.215Z,33.87
2019-02-11T07:02:32.734Z,35.60
2019-02-11T07:05:04.199Z,30.50
2019-02-11T07:07:36.775Z,28.13
2019-02-11T07:10:09.390Z,29.43
2019-02-11T07:12:41.037Z,29.73
2019-02-11T07:15:21.232Z,45.23
2019-02-11T07:17:46.841Z,31.77
2019-02-11T07:20:18.534Z,25.60
2019-02-11T07:22:50.173Z,24.63
2019-02-11T07:25:21.848Z,25.67
2019-02-11T07:27:53.344Z,24.67
2019-02-11T07:30:25.146Z,24.93
2019-02-11T07:32:56.825Z,36.27
2019-02-11T07:35:28.443Z,34.60
2019-02-11T07:37:59.827Z,24.33
2019-02-11T07:40:31.275Z,29.57
2019-02-11T07:43:14.311Z,22.10
2019-02-11T07:45:58.788Z,30.23
2019-02-11T07:48:30.460Z,28.53
2019-02-11T07:51:02.023Z,48.90
2019-02-11T07:53:34.556Z,20.67
2019-02-11T07:56:06.166Z,29.97
2019-02-11T07:58:37.565Z,28.83
2019-02-11T08:01:10.338Z,25.40
2019-02-11T08:03:42.086Z,21.07
2019-02-11T08:06:14.881Z,39.47
2019-02-11T08:08:46.410Z,27.83
2019-02-11T08:11:17.927Z,26.10
2019-02-11T08:13:49.458Z,48.27
2019-02-11T08:16:21.073Z,23.23
2019-02-11T08:18:52.279Z,41.43
2019-02-11T08:21:23.754Z,33.73
2019-02-11T08:23:55.935Z,22.13
2019-02-11T08:26:27.511Z,31.73
2019-02-11T08:28:59.159Z,21.27
2019-02-11T08:31:30.535Z,29.47
2019-02-11T08:34:01.880Z,29.53
2019-02-11T08:36:33.434Z,26.00
2019-02-11T08:39:07.548Z,25.87
2019-02-11T08:41:39.207Z,24.47
2019-02-11T08:44:10.950Z,19.43
2019-02-11T08:46:42.268Z,22.70
2019-02-11T08:49:13.676Z,38.23
2019-02-11T08:51:45.697Z,43.73
2019-02-11T08:54:17.919Z,30.40
2019-02-11T08:56:49.450Z,29.47
2019-02-11T08:59:20.944Z,27.17
2019-02-11T09:01:52.774Z,20.67
2019-02-11T09:04:23.808Z,38.03
2019-02-11T09:06:55.627Z,30.47
2019-02-11T09:09:26.894Z,28.27
2019-02-11T09:11:58.323Z,22.93
2019-02-11T09:14:30.944Z,25.90
2019-02-11T09:17:09.980Z,23.70
2019-02-11T09:19:36.193Z,27.00
2019-02-11T09:22:07.958Z,24.27
2019-02-11T09:24:39.640Z,25.97
2019-02-11T09:27:11.266Z,30.73
2019-02-11T09:29:42.828Z,34.93
2019-02-11T09:32:14.369Z,28.37
2019-02-11T09:34:45.932Z,23.63
2019-02-11T09:37:17.434Z,28.60
2019-02-11T09:39:48.654Z,48.73
2019-02-11T09:42:20.279Z,25.07
2019-02-11T09:44:51.841Z,49.87
2019-02-11T09:47:23.502Z,30.23
2019-02-11T09:50:18.244Z,36.93
2019-02-11T09:52:50.733Z,44.53
2019-02-11T09:55:27.826Z,25.20
2019-02-11T09:57:59.439Z,28.33
2019-02-11T10:00:31.284Z,21.13
2019-02-11T10:03:03.592Z,22.73
2019-02-11T10:05:35.279Z,26.40
2019-02-11T10:08:06.840Z,61.17
2019-02-11T10:10:38.498Z,24.97
2019-02-11T10:13:09.995Z,25.93
2019-02-11T10:15:42.257Z,23.03
2019-02-11T10:18:13.952Z,27.53
2019-02-11T10:20:45.358Z,42.77
2019-02-11T10:23:17.265Z,22.00
2019-02-11T10:25:49.055Z,26.80
2019-02-11T10:28:20.597Z,29.30
2019-02-11T10:30:52.181Z,31.43
2019-02-11T10:33:23.587Z,31.50
2019-02-11T10:35:55.210Z,36.77
2019-02-11T10:38:27.698Z,26.80
2019-02-11T10:40:59.410Z,34.90
2019-02-11T10:43:30.835Z,21.40
2019-02-11T10:46:02.414Z,34.20
2019-02-11T10:48:33.899Z,23.13
2019-02-11T10:51:05.765Z,34.07
2019-02-11T10:53:37.486Z,19.70
2019-02-11T10:56:10.043Z,27.10
2019-02-11T10:58:41.399Z,48.07
2019-02-11T11:01:13.403Z,26.13
2019-02-11T11:03:45.085Z,22.07
2019-02-11T11:06:16.955Z,18.23
2019-02-11T11:08:48.639Z,17.27
2019-02-11T11:11:20.210Z,17.37
2019-02-11T11:13:51.722Z,17.77
2019-02-11T11:16:29.404Z,16.87
2019-02-11T11:18:56.335Z,26.37
2019-02-11T11:21:27.800Z,15.77
2019-02-11T11:23:59.481Z,16.43
2019-02-11T11:26:31.136Z,28.23
2019-02-11T11:29:02.647Z,26.70
2019-02-11T11:31:34.460Z,26.23
2019-02-11T11:34:06.004Z,14.67
2019-02-11T11:36:37.488Z,17.37
2019-02-11T11:39:19.868Z,17.10
2019-02-11T11:41:51.235Z,14.17
2019-02-11T11:44:22.800Z,46.93
2019-02-11T11:46:54.392Z,40.43
2019-02-11T11:49:26.175Z,29.80
2019-02-11T11:51:57.745Z,24.27
2019-02-11T11:54:29.471Z,14.10
2019-02-11T11:57:01.848Z,29.77
2019-02-11T11:59:33.578Z,39.10
2019-02-11T12:02:05.953Z,39.47
2019-02-11T12:04:37.457Z,26.40
2019-02-11T12:07:09.263Z,27.67
2019-02-11T12:09:43.703Z,18.37
2019-02-11T12:12:14.705Z,43.07
2019-02-11T12:14:46.129Z,19.97
2019-02-11T12:17:17.546Z,14.60
2019-02-11T12:19:49.258Z,22.23
2019-02-11T12:22:20.705Z,19.00
2019-02-11T12:24:52.252Z,23.53
2019-02-11T12:27:23.809Z,20.40
2019-02-11T12:29:55.325Z,20.53
2019-02-11T12:32:26.757Z,21.63
2019-02-11T12:34:58.465Z,57.20
2019-02-11T12:37:29.866Z,21.30
2019-02-11T12:40:01.548Z,20.80
2019-02-11T12:42:33.169Z,19.07
2019-02-11T12:45:04.886Z,18.93
2019-02-11T12:47:37.341Z,28.07
2019-02-11T12:50:09.756Z,23.63
2019-02-11T12:52:42.306Z,25.27
2019-02-11T12:55:14.517Z,23.53
2019-02-11T12:57:45.831Z,20.73
2019-02-11T13:00:19.870Z,18.80
2019-02-11T13:02:51.518Z,19.50
2019-02-11T13:05:32.409Z,19.13
2019-02-11T13:07:56.428Z,22.43
2019-02-11T13:10:28.178Z,20.07
2019-02-11T13:12:59.863Z,22.67
2019-02-11T13:15:56.893Z,29.30
2019-02-11T13:18:04.998Z,26.63
2019-02-11T13:20:36.632Z,31.77
2019-02-11T13:23:09.638Z,31.03
2019-02-11T13:25:41.323Z,40.43
2019-02-11T13:28:12.977Z,38.47
2019-02-11T13:30:44.381Z,35.30
2019-02-11T13:33:15.825Z,51.53
2019-02-11T13:36:06.120Z,44.10
2019-02-11T13:38:37.984Z,34.87
2019-02-11T13:41:09.679Z,24.93
2019-02-11T13:43:41.474Z,31.90
2019-02-11T13:46:13.092Z,120.27
2019-02-11T13:48:46.890Z,44.47
2019-02-11T13:51:18.489Z,42.70
2019-02-11T13:53:51.306Z,47.80
2019-02-11T13:56:22.770Z,60.70
2019-02-11T13:58:54.182Z,45.13
2019-02-11T14:01:25.450Z,44.57
2019-02-11T14:03:57.369Z,57.07
2019-02-11T14:06:30.009Z,41.00
2019-02-11T14:09:01.762Z,48.57
2019-02-11T14:11:34.736Z,50.87
2019-02-11T14:14:06.350Z,54.57
2019-02-11T14:16:37.884Z,40.70
2019-02-11T14:19:09.577Z,53.90
2019-02-11T14:21:42.352Z,56.57
2019-02-11T14:24:14.047Z,61.43
2019-02-11T14:26:45.604Z,85.17
2019-02-11T14:29:17.266Z,149.17
2019-02-11T14:31:49.293Z,224.83
2019-02-11T14:34:21.041Z,161.93
2019-02-11T14:36:52.688Z,149.50
2019-02-11T14:39:25.345Z,337.77
2019-02-11T14:41:56.859Z,184.33
2019-02-11T14:44:28.734Z,130.93
2019-02-11T14:47:00.505Z,107.33
2019-02-11T14:49:32.215Z,96.07
2019-02-11T14:52:03.643Z,63.40
2019-02-11T14:54:35.292Z,70.70
2019-02-11T14:57:06.912Z,71.37
2019-02-11T14:59:38.581Z,74.00
2019-02-11T15:02:10.256Z,89.20
2019-02-11T15:04:41.569Z,97.93
2019-02-11T15:07:13.093Z,117.07
2019-02-11T15:09:44.776Z,124.70
2019-02-11T15:12:16.038Z,117.93
2019-02-11T15:14:47.615Z,85.97
2019-02-11T15:17:19.575Z,112.17
2019-02-11T15:19:51.475Z,93.60
2019-02-11T15:22:24.852Z,96.37
2019-02-11T15:24:56.437Z,124.80
2019-02-11T15:27:28.056Z,163.40
2019-02-11T15:29:59.826Z,188.90
2019-02-11T15:32:31.367Z,204.97
2019-02-11T15:35:02.936Z,210.13
2019-02-11T15:37:34.234Z,172.47
2019-02-11T15:40:06.882Z,121.63
2019-02-11T15:42:38.245Z,140.00
2019-02-11T15:45:11.686Z,159.13
2019-02-11T15:47:43.284Z,136.50
2019-02-11T15:50:16.208Z,150.73
2019-02-11T15:52:47.546Z,172.93
2019-02-11T15:55:20.330Z,133.27
2019-02-11T15:57:51.886Z,189.07
2019-02-11T16:00:23.814Z,171.03
2019-02-11T16:02:55.213Z,166.30
2019-02-11T16:05:26.691Z,148.37
2019-02-11T16:07:58.293Z,124.93
2019-02-11T16:10:29.874Z,97.53
2019-02-11T16:13:01.290Z,103.80
2019-02-11T16:15:32.867Z,129.07
2019-02-11T16:18:04.399Z,111.17
2019-02-11T16:20:36.114Z,137.43
2019-02-11T16:23:07.709Z,106.83
2019-02-11T16:25:39.633Z,120.43
2019-02-11T16:28:11.209Z,119.37
2019-02-11T16:30:42.883Z,178.70
2019-02-11T16:33:14.348Z,135.73
2019-02-11T16:35:46.053Z,135.00
2019-02-11T16:38:17.419Z,113.07
2019-02-11T16:40:49.023Z,109.20
2019-02-11T16:43:20.614Z,119.27
2019-02-11T16:45:52.073Z,219.20
2019-02-11T16:48:23.655Z,141.57
2019-02-11T16:50:55.267Z,151.87
2019-02-11T16:53:26.891Z,128.03
2019-02-11T16:55:58.694Z,178.17
2019-02-11T16:58:30.062Z,124.80
2019-02-11T17:01:02.320Z,124.97
2019-02-11T17:03:35.095Z,145.50
2019-02-11T17:06:07.894Z,161.10
2019-02-11T17:08:39.357Z,146.27
2019-02-11T17:11:10.883Z,168.07
2019-02-11T17:13:43.489Z,150.63
2019-02-11T17:16:15.149Z,165.30
2019-02-11T17:18:46.974Z,163.20
2019-02-11T17:21:18.875Z,167.90
2019-02-11T17:23:50.190Z,133.67
2019-02-11T17:26:22.851Z,136.10
2019-02-11T17:28:54.486Z,139.70
2019-02-11T17:31:26.212Z,154.03
2019-02-11T17:33:57.660Z,149.20
2019-02-11T17:36:29.355Z,145.23
2019-02-11T17:39:01.082Z,158.03
2019-02-11T17:41:34.386Z,142.10
2019-02-11T17:44:05.916Z,154.50
2019-02-11T17:46:37.570Z,176.70
2019-02-11T17:49:17.564Z,125.30
2019-02-11T17:51:43.890Z,129.77
2019-02-11T17:54:17.346Z,125.00
2019-02-11T17:56:49.564Z,123.83
2019-02-11T17:59:21.232Z,110.67
2019-02-11T18:01:52.965Z,118.00
2019-02-11T18:04:24.489Z,119.53
2019-02-11T18:06:56.003Z,120.47
2019-02-11T18:09:27.351Z,121.57
2019-02-11T18:12:00.213Z,104.33
2019-02-11T18:14:31.653Z,93.27
2019-02-11T18:17:03.201Z,109.07
2019-02-11T18:19:34.684Z,110.30
2019-02-11T18:22:06.283Z,98.63
2019-02-11T18:24:37.839Z,83.73
2019-02-11T18:27:09.360Z,90.23
2019-02-11T18:29:40.926Z,73.67
2019-02-11T18:32:13.239Z,82.43
2019-02-11T18:34:44.658Z,89.87
2019-02-11T18:37:17.026Z,78.93
2019-02-11T18:39:48.498Z,98.43
2019-02-11T18:42:20.124Z,141.63
2019-02-11T18:44:51.603Z,119.73
2019-02-11T18:47:23.181Z,128.60
2019-02-11T18:49:54.748Z,163.00
2019-02-11T18:52:27.798Z,177.37
2019-02-11T18:54:59.264Z,157.60
2019-02-11T18:57:31.047Z,159.20
2019-02-11T19:00:02.490Z,221.23
2019-02-11T19:02:34.110Z,281.93
2019-02-11T19:05:05.670Z,200.77
2019-02-11T19:07:37.430Z,157.73
2019-02-11T19:10:09.757Z,130.93
2019-02-11T19:12:41.389Z,128.43
2019-02-11T19:15:14.039Z,110.67
2019-02-11T19:17:45.570Z,87.87
2019-02-11T19:20:17.151Z,102.50
2019-02-11T19:22:48.636Z,92.13
2019-02-11T19:25:20.315Z,91.67
2019-02-11T19:27:51.770Z,126.93
2019-02-11T19:30:24.088Z,85.45
2019-02-11T19:32:55.637Z,90.80
2019-02-11T19:35:27.088Z,91.53
2019-02-11T19:37:59.653Z,78.00
2019-02-11T19:40:32.359Z,74.63
2019-02-11T19:43:06.190Z,85.92
2019-02-11T19:45:37.469Z,93.78
2019-02-11T19:48:09.147Z,87.62
2019-02-11T19:50:40.803Z,85.57
2019-02-11T19:53:12.375Z,70.75
2019-02-11T19:55:43.970Z,71.42
2019-02-11T19:58:15.413Z,71.17
2019-02-11T20:00:47.018Z,72.93
2019-02-11T20:03:18.713Z,63.47
2019-02-11T20:05:50.329Z,66.10
2019-02-11T20:08:23.731Z,68.17
2019-02-11T20:10:55.304Z,74.87
2019-02-11T20:13:26.809Z,69.82
2019-02-11T20:15:58.283Z,67.57
2019-02-11T20:18:30.034Z,70.07
2019-02-11T20:21:01.390Z,80.93
2019-02-11T20:23:32.692Z,86.25
2019-02-11T20:26:04.424Z,100.12
2019-02-11T20:28:36.387Z,100.22
2019-02-11T20:31:07.983Z,98.65
2019-02-11T20:33:39.399Z,105.52
2019-02-11T20:36:10.766Z,111.00
2019-02-11T20:38:42.083Z,103.47
2019-02-11T20:41:13.504Z,92.90
2019-02-11T20:43:45.032Z,89.20
2019-02-11T20:46:17.118Z,73.40
2019-02-11T20:48:48.558Z,102.47
2019-02-11T20:51:20.219Z,123.55
2019-02-11T20:53:51.677Z,129.42
2019-02-11T20:56:23.472Z,166.57
2019-02-11T20:58:55.315Z,183.45
2019-02-11T21:01:26.859Z,173.35
2019-02-11T21:03:58.255Z,163.82
2019-02-11T21:06:30.097Z,147.47
2019-02-11T21:09:01.604Z,142.98
2019-02-11T21:11:34.496Z,117.77
2019-02-11T21:14:06.079Z,115.10
2019-02-11T21:16:37.571Z,103.10
2019-02-11T21:19:09.383Z,100.42
2019-02-11T21:21:40.935Z,97.40
2019-02-11T21:24:12.552Z,108.57
2019-02-11T21:26:44.834Z,107.60
2019-02-11T21:29:16.109Z,97.10
2019-02-11T21:31:47.456Z,84.95
2019-02-11T21:34:19.159Z,82.55
2019-02-11T21:36:50.573Z,82.00
2019-02-11T21:39:22.054Z,84.80
2019-02-11T21:41:53.591Z,79.50
2019-02-11T21:44:25.174Z,80.92
2019-02-11T21:46:57.668Z,77.70
2019-02-11T21:49:29.568Z,73.05
2019-02-11T21:52:01.843Z,69.00
2019-02-11T21:54:33.343Z,77.37
2019-02-11T21:57:04.966Z,112.05
2019-02-11T21:59:36.727Z,119.80
2019-02-11T22:02:08.273Z,124.20
2019-02-11T22:04:40.149Z,140.30
2019-02-11T22:07:11.593Z,126.25
2019-02-11T22:09:43.223Z,123.90
2019-02-11T22:12:14.892Z,139.77
2019-02-11T22:14:46.421Z,120.77
2019-02-11T22:17:18.068Z,109.00
2019-02-11T22:19:49.775Z,108.72
2019-02-11T22:22:22.720Z,106.87
2019-02-11T22:24:56.348Z,111.55
2019-02-11T22:27:28.194Z,131.30
2019-02-11T22:30:00.042Z,133.65
2019-02-11T22:32:31.671Z,129.27
2019-02-11T22:35:03.191Z,153.02
2019-02-11T22:37:34.743Z,136.22
2019-02-11T22:40:07.462Z,127.00
2019-02-11T22:42:38.914Z,113.83
2019-02-11T22:45:13.691Z,106.22
2019-02-11T22:47:45.465Z,122.10
2019-02-11T22:50:17.298Z,121.92
2019-02-11T22:52:48.778Z,127.50
2019-02-11T22:55:20.397Z,109.72
2019-02-11T22:57:52.314Z,97.75
2019-02-11T23:00:45.214Z,97.70
2019-02-11T23:03:17.086Z,80.45
2019-02-11T23:05:48.561Z,82.50
2019-02-11T23:08:20.003Z,82.15
2019-02-11T23:10:51.758Z,68.60
2019-02-11T23:13:23.328Z,73.15
2019-02-11T23:15:56.315Z,74.42
2019-02-11T23:18:29.346Z,70.72
2019-02-11T23:21:00.769Z,82.75
2019-02-11T23:23:32.130Z,83.97
2019-02-11T23:26:03.851Z,87.27
2019-02-11T23:28:35.308Z,63.92
2019-02-11T23:31:07.316Z,81.82
2019-02-11T23:33:38.794Z,91.60
2019-02-11T23:36:10.139Z,105.40
2019-02-11T23:38:43.001Z,126.90
2019-02-11T23:41:14.396Z,100.93
2019-02-11T23:43:45.789Z,92.40
2019-02-11T23:46:17.158Z,83.83
2019-02-11T23:48:48.906Z,72.53
2019-02-11T23:51:20.365Z,67.60
2019-02-11T23:53:52.066Z,60.70
2019-02-11T23:56:23.682Z,64.45
2019-02-11T23:58:56.303Z,75.28
